createdAt,value
2023-06-10T00:00:19.056Z,14.44
2023-06-10T00:04:56.820Z,14.49
2023-06-10T00:09:16.250Z,14.44
2023-06-10T00:13:34.695Z,14.39
2023-06-10T00:17:54.363Z,14.42
2023-06-10T00:22:14.215Z,14.36
2023-06-10T00:26:31.892Z,14.42
2023-06-10T00:30:49.452Z,14.48
2023-06-10T00:35:08.626Z,14.66
2023-06-10T00:39:26.633Z,14.79
2023-06-10T00:43:45.433Z,14.90
2023-06-10T00:48:03.544Z,15.00
2023-06-10T00:52:24.087Z,15.01
2023-06-10T00:56:44.395Z,15.02
2023-06-10T01:01:04.307Z,15.00
2023-06-10T01:05:23.640Z,15.05
2023-06-10T01:09:58.532Z,15.09
2023-06-10T01:14:18.611Z,15.11
2023-06-10T01:18:37.124Z,15.14
2023-06-10T01:22:56.114Z,15.16
2023-06-10T01:27:17.458Z,15.16
2023-06-10T01:32:03.435Z,15.20
2023-06-10T01:36:22.981Z,15.23
2023-06-10T01:40:41.947Z,15.25
2023-06-10T01:45:00.688Z,15.28
2023-06-10T01:49:18.441Z,15.26
2023-06-10T01:53:36.851Z,15.26
2023-06-10T01:57:55.543Z,15.26
2023-06-10T02:02:13.740Z,15.26
2023-06-10T02:06:32.743Z,15.29
2023-06-10T02:10:51.408Z,15.28
2023-06-10T02:15:10.041Z,15.29
2023-06-10T02:19:29.393Z,15.32
2023-06-10T02:23:47.106Z,15.35
2023-06-10T02:28:07.074Z,15.32
2023-06-10T02:32:24.934Z,15.32
2023-06-10T02:36:42.964Z,15.23
2023-06-10T02:41:00.571Z,15.18
2023-06-10T02:45:20.693Z,15.02
2023-06-10T02:49:38.434Z,14.92
2023-06-10T02:53:56.073Z,14.77
2023-06-10T02:58:14.062Z,14.73
2023-06-10T03:02:33.512Z,14.79
2023-06-10T03:06:52.020Z,14.84
2023-06-10T03:11:09.898Z,14.95
2023-06-10T03:15:27.830Z,15.09
2023-06-10T03:19:45.333Z,15.25
2023-06-10T03:24:04.491Z,15.36
2023-06-10T03:28:23.734Z,15.43
2023-06-10T03:32:42.669Z,15.46
2023-06-10T03:37:00.503Z,15.55
2023-06-10T03:41:18.090Z,15.56
2023-06-10T03:45:37.310Z,15.66
2023-06-10T03:49:54.927Z,15.71
2023-06-10T03:54:12.985Z,15.71
2023-06-10T03:58:31.309Z,15.77
2023-06-10T04:02:50.983Z,15.76
2023-06-10T04:07:09.978Z,15.80
2023-06-10T04:11:27.795Z,15.85
2023-06-10T04:15:45.264Z,15.91
2023-06-10T04:20:05.247Z,15.88
2023-06-10T04:24:23.575Z,15.87
2023-06-10T04:28:41.283Z,15.95
2023-06-10T04:33:00.493Z,16.14
2023-06-10T04:37:18.394Z,16.36
2023-06-10T04:41:36.276Z,16.61
2023-06-10T04:45:53.822Z,16.94
2023-06-10T04:50:13.077Z,17.07
2023-06-10T04:54:31.248Z,17.08
2023-06-10T04:58:48.853Z,17.07
2023-06-10T05:03:07.075Z,17.14
2023-06-10T05:07:25.443Z,17.38
2023-06-10T05:11:42.943Z,17.39
2023-06-10T05:16:00.756Z,17.25
2023-06-10T05:20:18.263Z,17.22
2023-06-10T05:24:36.358Z,17.22
2023-06-10T05:28:54.716Z,17.15
2023-06-10T05:33:12.424Z,16.86
2023-06-10T05:37:31.412Z,16.55
2023-06-10T05:41:49.012Z,16.48
2023-06-10T05:46:06.936Z,16.56
2023-06-10T05:50:26.536Z,16.61
2023-06-10T05:54:44.105Z,16.87
2023-06-10T05:59:03.260Z,16.84
2023-06-10T06:03:20.993Z,16.84
2023-06-10T06:07:40.279Z,16.80
2023-06-10T06:11:58.120Z,16.74
2023-06-10T06:16:16.082Z,16.69
2023-06-10T06:20:34.228Z,16.71
2023-06-10T06:24:52.710Z,16.87
2023-06-10T06:29:10.415Z,16.86
2023-06-10T06:33:28.104Z,16.73
2023-06-10T06:37:47.229Z,17.03
2023-06-10T06:42:05.548Z,17.11
2023-06-10T06:46:23.652Z,16.94
2023-06-10T06:50:43.335Z,16.97
2023-06-10T06:55:01.934Z,17.25
2023-06-10T06:59:21.158Z,17.39
2023-06-10T07:03:38.790Z,17.57
2023-06-10T07:07:57.798Z,18.02
2023-06-10T07:12:15.568Z,18.26
2023-06-10T07:16:33.369Z,18.39
2023-06-10T07:20:50.869Z,18.31
2023-06-10T07:25:09.832Z,18.15
2023-06-10T07:29:27.793Z,17.87
2023-06-10T07:33:46.199Z,18.00
2023-06-10T07:38:04.551Z,18.22
2023-06-10T07:42:22.108Z,19.12
2023-06-10T07:46:41.320Z,19.87
2023-06-10T07:50:59.075Z,20.75
2023-06-10T07:55:17.035Z,21.35
2023-06-10T07:59:37.008Z,21.63
2023-06-10T08:03:56.122Z,22.16
2023-06-10T08:08:15.672Z,22.13
2023-06-10T08:12:35.554Z,22.28
2023-06-10T08:16:54.860Z,22.48
2023-06-10T08:21:12.515Z,23.33
2023-06-10T08:25:31.145Z,23.29
2023-06-10T08:29:49.550Z,23.54
2023-06-10T08:34:07.155Z,22.73
2023-06-10T08:38:25.928Z,22.33
2023-06-10T08:42:53.097Z,23.46
2023-06-10T08:47:17.231Z,22.99
2023-06-10T08:51:37.896Z,22.60
2023-06-10T08:56:00.358Z,23.12
2023-06-10T09:00:18.469Z,24.03
2023-06-10T09:04:37.550Z,24.44
2023-06-10T09:09:00.892Z,24.78
2023-06-10T09:13:21.163Z,25.70
2023-06-10T09:17:39.370Z,25.16
2023-06-10T09:21:57.825Z,24.37
2023-06-10T09:26:17.001Z,23.85
2023-06-10T09:30:36.062Z,24.63
2023-06-10T09:34:54.537Z,24.06
2023-06-10T09:39:19.350Z,24.19
2023-06-10T09:43:55.389Z,23.30
2023-06-10T09:48:14.528Z,23.09
2023-06-10T09:52:33.119Z,22.64
2023-06-10T09:56:53.384Z,23.02
2023-06-10T10:01:14.130Z,23.51
2023-06-10T10:05:31.975Z,22.81
2023-06-10T10:09:51.824Z,22.81
2023-06-10T10:14:10.900Z,22.69
2023-06-10T10:18:32.892Z,23.15
2023-06-10T10:22:53.941Z,23.07
2023-06-10T10:27:54.019Z,23.85
2023-06-10T10:32:16.067Z,24.75
2023-06-10T10:36:34.369Z,25.60
2023-06-10T10:40:53.295Z,25.32
2023-06-10T10:45:12.446Z,24.88
2023-06-10T10:49:32.439Z,25.74
2023-06-10T10:54:15.574Z,26.63
2023-06-10T10:58:36.042Z,26.36
2023-06-10T11:02:57.385Z,26.01
2023-06-10T11:07:23.289Z,27.25
2023-06-10T11:11:51.503Z,30.34
2023-06-10T11:16:11.719Z,33.09
2023-06-10T11:20:59.849Z,30.07
2023-06-10T11:25:18.041Z,26.33
2023-06-10T11:29:35.728Z,29.65
2023-06-10T11:34:06.957Z,29.15
2023-06-10T11:38:24.764Z,28.97
2023-06-10T11:42:44.310Z,27.48
2023-06-10T11:47:01.942Z,30.13
2023-06-10T11:51:21.357Z,32.52
2023-06-10T11:55:52.645Z,33.84
2023-06-10T12:00:10.725Z,37.12
2023-06-10T12:04:28.417Z,35.41
2023-06-10T12:08:46.303Z,37.54
2023-06-10T12:13:06.833Z,36.26
2023-06-10T12:17:34.522Z,36.06
2023-06-10T12:21:54.849Z,37.83
2023-06-10T12:26:12.468Z,34.97
2023-06-10T12:30:31.358Z,35.99
2023-06-10T12:34:49.597Z,31.09
2023-06-10T12:39:07.801Z,35.27
2023-06-10T12:43:26.435Z,38.97
2023-06-10T12:47:44.101Z,42.78
2023-06-10T12:52:02.945Z,44.92
2023-06-10T12:56:21.481Z,45.09
2023-06-10T13:00:40.244Z,46.76
2023-06-10T13:04:57.558Z,41.27
2023-06-10T13:09:16.691Z,33.45
2023-06-10T13:13:36.556Z,38.44
2023-06-10T13:17:54.625Z,43.48
2023-06-10T13:22:14.175Z,43.97
2023-06-10T13:26:32.626Z,44.00
2023-06-10T13:30:51.279Z,38.00
2023-06-10T13:35:10.602Z,41.17
2023-06-10T13:39:29.125Z,32.54
2023-06-10T13:43:47.473Z,30.20
2023-06-10T13:48:08.197Z,42.32
2023-06-10T13:52:26.242Z,43.15
2023-06-10T13:56:44.033Z,43.32
2023-06-10T14:01:03.214Z,34.28
2023-06-10T14:05:21.828Z,28.15
2023-06-10T14:09:41.792Z,24.92
2023-06-10T14:14:00.913Z,23.48
2023-06-10T14:18:19.088Z,23.02
2023-06-10T14:22:37.066Z,22.79
2023-06-10T14:26:55.392Z,22.43
2023-06-10T14:31:13.101Z,21.99
2023-06-10T14:35:32.206Z,22.03
2023-06-10T14:39:49.960Z,22.20
2023-06-10T14:44:08.590Z,22.71
2023-06-10T14:48:28.928Z,23.33
2023-06-10T14:52:46.959Z,24.35
2023-06-10T14:57:04.858Z,25.23
2023-06-10T15:01:23.436Z,27.05
2023-06-10T15:05:41.140Z,31.30
2023-06-10T15:09:58.712Z,36.96
2023-06-10T15:14:16.493Z,33.60
2023-06-10T15:18:34.745Z,27.38
2023-06-10T15:22:52.731Z,25.23
2023-06-10T15:27:11.473Z,24.75
2023-06-10T15:31:29.737Z,25.04
2023-06-10T15:35:47.392Z,26.12
2023-06-10T15:40:06.671Z,25.54
2023-06-10T15:44:24.267Z,24.47
2023-06-10T15:48:43.243Z,24.40
2023-06-10T15:53:01.580Z,23.64
2023-06-10T15:57:23.456Z,27.53
2023-06-10T16:01:42.686Z,25.95
2023-06-10T16:06:01.797Z,24.13
2023-06-10T16:10:20.417Z,23.47
2023-06-10T16:14:38.020Z,23.18
2023-06-10T16:18:56.277Z,27.33
2023-06-10T16:23:14.798Z,26.06
2023-06-10T16:27:32.376Z,23.19
2023-06-10T16:31:51.336Z,21.66
2023-06-10T16:36:08.558Z,21.13
2023-06-10T16:40:26.792Z,20.97
2023-06-10T16:44:44.917Z,20.52
2023-06-10T16:49:03.527Z,20.27
2023-06-10T16:53:21.220Z,20.25
2023-06-10T16:57:39.757Z,20.16
2023-06-10T17:01:59.217Z,20.22
2023-06-10T17:06:19.586Z,20.06
2023-06-10T17:10:37.565Z,20.03
2023-06-10T17:14:55.578Z,20.06
2023-06-10T17:19:13.910Z,19.93
2023-06-10T17:23:32.002Z,19.72
2023-06-10T17:27:51.994Z,19.48
2023-06-10T17:32:10.618Z,19.28
2023-06-10T17:36:29.284Z,19.14
2023-06-10T17:40:47.088Z,19.04
2023-06-10T17:45:04.957Z,18.97
2023-06-10T17:49:31.610Z,18.80
2023-06-10T17:53:51.492Z,18.76
2023-06-10T17:58:09.562Z,18.72
2023-06-10T18:02:27.390Z,18.51
2023-06-10T18:06:46.725Z,18.26
2023-06-10T18:11:04.369Z,18.01
2023-06-10T18:15:22.536Z,17.73
2023-06-10T18:19:40.540Z,17.47
2023-06-10T18:23:58.929Z,17.28
2023-06-10T18:28:17.557Z,17.00
2023-06-10T18:32:35.728Z,16.73
2023-06-10T18:36:55.356Z,16.45
2023-06-10T18:41:13.606Z,16.32
2023-06-10T18:45:31.958Z,16.15
2023-06-10T18:49:49.707Z,16.11
2023-06-10T18:54:08.146Z,16.03
2023-06-10T18:58:25.972Z,15.98
2023-06-10T19:02:46.295Z,15.71
2023-06-10T19:07:04.719Z,15.55
2023-06-10T19:11:23.185Z,15.43
2023-06-10T19:15:42.657Z,15.25
2023-06-10T19:20:00.584Z,15.16
2023-06-10T19:24:21.418Z,14.97
2023-06-10T19:28:39.734Z,14.71
2023-06-10T19:32:58.199Z,14.55
2023-06-10T19:37:16.756Z,14.36
2023-06-10T19:41:37.139Z,14.21
2023-06-10T19:45:55.849Z,14.11
2023-06-10T19:50:15.686Z,14.19
2023-06-10T19:54:37.941Z,14.01
2023-06-10T19:58:55.075Z,13.85
2023-06-10T20:03:13.591Z,13.71
2023-06-10T20:07:32.508Z,13.54
2023-06-10T20:11:51.523Z,13.38
2023-06-10T20:16:09.231Z,13.22
2023-06-10T20:20:28.753Z,13.12
2023-06-10T20:24:48.795Z,12.98
2023-06-10T20:29:06.636Z,12.90
2023-06-10T20:33:24.937Z,12.77
2023-06-10T20:37:43.699Z,12.73
2023-06-10T20:42:01.332Z,12.61
2023-06-10T20:46:19.669Z,12.56
2023-06-10T20:50:38.343Z,12.50
2023-06-10T20:54:57.523Z,12.44
2023-06-10T20:59:16.278Z,12.47
2023-06-10T21:03:33.961Z,12.53
2023-06-10T21:07:52.490Z,12.61
2023-06-10T21:12:11.856Z,12.63
2023-06-10T21:16:31.766Z,12.64
2023-06-10T21:20:50.657Z,12.64
2023-06-10T21:25:10.465Z,12.71
2023-06-10T21:29:29.927Z,12.87
2023-06-10T21:33:48.076Z,13.04
2023-06-10T21:38:07.427Z,13.14
2023-06-10T21:42:25.078Z,13.39
2023-06-10T21:46:43.480Z,13.46
2023-06-10T21:51:01.129Z,13.64
2023-06-10T21:55:19.597Z,13.54
2023-06-10T21:59:39.769Z,13.56
2023-06-10T22:03:57.645Z,13.73
2023-06-10T22:08:16.771Z,13.66
2023-06-10T22:12:34.396Z,13.74
2023-06-10T22:16:54.184Z,13.63
2023-06-10T22:21:12.708Z,13.50
2023-06-10T22:25:30.810Z,13.49
2023-06-10T22:29:48.946Z,13.53
2023-06-10T22:34:07.289Z,13.47
2023-06-10T22:38:25.859Z,13.43
2023-06-10T22:42:42.916Z,13.33
2023-06-10T22:47:02.131Z,13.47
2023-06-10T22:51:21.178Z,13.43
2023-06-10T22:55:38.873Z,13.39
2023-06-10T22:59:57.316Z,13.44
2023-06-10T23:04:15.024Z,13.42
2023-06-10T23:08:33.175Z,13.29
2023-06-10T23:12:51.503Z,13.05
2023-06-10T23:17:09.872Z,13.01
2023-06-10T23:21:35.385Z,12.90
2023-06-10T23:25:53.554Z,12.73
2023-06-10T23:30:11.615Z,12.61
2023-06-10T23:34:29.562Z,12.49
2023-06-10T23:38:47.690Z,12.53
2023-06-10T23:43:05.419Z,12.50
2023-06-10T23:47:23.571Z,12.44
2023-06-10T23:51:41.947Z,12.37
2023-06-10T23:55:59.522Z,12.24
